KBGR/BGR METAR and TAF weather

Enter ICAO airport designator
Station Type Date Time Source
KBGR METAR 2020/01/24 15:53 UTC NOAA

KBGR 241553Z 00000KT 10SM FEW075 SCT120 BKN200 01/M04 A3050 RMK AO2 SLP332 T00111039


Station Type Date Time Source
KBGR Decoded METAR 2020/01/24 15:53 UTC NOAA

BANGOR INT'L AIRPORT, ME, United States (KBGR) 44-48N 068-49W 57M
Jan 24, 2020 - 10:53 AM EST / 2020.01.24 1553 UTC
Wind: Calm:0
Visibility: 10 mile(s):0
Sky conditions: mostly cloudy
Temperature: 34.0 F (1.1 C)
Dew Point: 25.0 F (-3.9 C)
Relative Humidity: 69%
Pressure (altimeter): 30.5 in. Hg (1032 hPa)
ob: KBGR 241553Z 00000KT 10SM FEW075 SCT120 BKN200 01/M04 A3050 RMK AO2 SLP332 T00111039
cycle: 16

Station Type Date Time Source
KBGR TAF 2020/01/24 12:24 UTC NOAA

TAF KBGR 241122Z 2412/2512 02004KT P6SM OVC200
FM242200 05004KT P6SM SCT100
FM250600 04004KT P6SM BKN040
FM250900 04003KT 3SM BR BKN012

Example: see airport list